Aomori Airport
RJSA : now visible

Airfield :











YOU CAN JOIN US ON...

 
LOGIN :

Register | Disclaimer

   EN    FR    IT 

 









Legend :    VFR   Marginal VFR   IFR   Intensive IFR   Very Intensive IFR
Visi :
Ceiling :
>= 8 km
>= 3000ft
5 to 8 km
1000 to 3000 ft
1500m to 5 km
500 to 1000 ft
800 to 1500m
200 to 500 ft
< 800m
< 200 ft
Symbols :   Thunderstorms  Fog  Heavy snow  Heavy precipitations  Wind > 20 kt






- Airport Elevation : 664 ft
- IATA code : AOJ


RJSA - Aomori

CURRENT METAR :
  • 082200Z 23005KT 8000 BCFG FEW001 SCT170 BKN/// 20/19 Q1008

EXPIRED METARs :
  • 082140Z 25004KT 8000 BCFG FEW001 SCT170 BKN/// 20/18 Q1007 RMK 1ST001 3AC170 A2976

TAF TAF RJSA
Valid from the 08 at 18:00 until the 10 at 00:00 UTC


081705Z 0818/1000 24005KT 9999 FEW008 BKN015
TEMPO 0818/0821 3000 BR FEW003 BKN008
BECMG 0921/1000 04005KT
RJJJ FIR / Asia



MET'MAP, your aeronautical weather chart ! - Copyright ORBIFLY December 2007 - Disclaimer

ORBIFLY MET'MAP TEAM :

Programming & Development : Alexandra Zaïnal
Concept & original design : Baudouin d'Aumeries
Assistance for programming : Marc-Olivier Méhu
Technical & hardware support : Manuel Goepfert

Contact : metmap@orbifly.com




SOURCES & CREDITS :

   NOAA       Earth
Advisory